Time;durP1;ratioP1;P1;durP2;ratioP2;P2;SDS_P1;SDS_P2;PMS_P1;PMS_P2;Temp;Humidity;BMP_temperature;BMP_pressure;BME280_temperature;BME280_humidity;BME280_pressure;Samples;Min_cycle;Max_cycle;Signal;HPM_P1;HPM_P2
2023/12/24 00:00:13;;;;;;;0.70;0.70;;;;;;;9.23;100.00;100072.59;5012212;23;20672;-67
2023/12/24 00:02:40;;;;;;;0.83;0.60;;;;;;;9.36;100.00;100069.25;5010454;28;20685;-66
2023/12/24 00:05:07;;;;;;;1.27;0.60;;;;;;;9.40;100.00;100076.34;5006724;28;21617;-68
2023/12/24 00:07:33;;;;;;;3.17;0.50;;;;;;;9.37;100.00;100047.22;5009468;28;20199;-68
2023/12/24 00:10:00;;;;;;;1.33;0.53;;;;;;;9.37;100.00;100043.69;5000806;28;20699;-68
2023/12/24 00:12:26;;;;;;;0.60;0.53;;;;;;;9.31;100.00;100041.88;5006615;28;20211;-66
2023/12/24 00:14:54;;;;;;;0.50;0.50;;;;;;;9.29;100.00;100027.75;4994723;28;20273;-67
2023/12/24 00:17:20;;;;;;;0.80;0.50;;;;;;;9.33;100.00;100019.00;4992891;28;20645;-67
2023/12/24 00:19:47;;;;;;;0.40;0.40;;;;;;;9.28;100.00;100009.22;4991829;28;20649;-67
2023/12/24 00:22:13;;;;;;;0.43;0.40;;;;;;;9.33;100.00;100002.25;4993558;28;20225;-67
2023/12/24 00:24:41;;;;;;;0.50;0.50;;;;;;;9.38;100.00;99998.78;4987556;28;20680;-67
2023/12/24 00:27:07;;;;;;;1.73;0.60;;;;;;;9.46;100.00;99988.28;4990197;28;20234;-67
2023/12/24 00:29:34;;;;;;;0.93;0.50;;;;;;;9.49;100.00;99979.50;4978901;28;20493;-68
2023/12/24 00:32:01;;;;;;;1.60;0.50;;;;;;;9.51;100.00;99986.59;4989797;28;20207;-67
2023/12/24 00:34:27;;;;;;;1.90;0.60;;;;;;;9.56;100.00;99999.84;5009121;28;20216;-66
2023/12/24 00:36:54;;;;;;;0.93;0.50;;;;;;;9.57;100.00;99986.66;4996706;28;20230;-67
2023/12/24 00:39:20;;;;;;;1.03;0.50;;;;;;;9.61;100.00;99996.41;4984802;28;20219;-67
2023/12/24 00:41:47;;;;;;;0.63;0.60;;;;;;;9.63;100.00;100005.25;5006031;28;20205;-66
2023/12/24 00:44:13;;;;;;;0.67;0.50;;;;;;;9.71;100.00;100013.25;4998519;28;20200;-66
2023/12/24 00:46:40;;;;;;;1.17;0.50;;;;;;;9.68;100.00;100029.09;4991302;28;20290;-67
2023/12/24 00:49:06;;;;;;;1.37;0.90;;;;;;;9.62;100.00;100019.34;4989279;28;20708;-66
2023/12/24 00:51:33;;;;;;;0.83;0.60;;;;;;;9.63;100.00;100022.88;4994369;28;20733;-65
2023/12/24 00:54:01;;;;;;;1.13;0.50;;;;;;;9.62;100.00;100016.69;4986871;28;20293;-66
2023/12/24 00:56:28;;;;;;;1.70;0.70;;;;;;;9.59;100.00;100019.28;4990784;28;20305;-68
2023/12/24 00:58:54;;;;;;;0.53;0.53;;;;;;;9.62;100.00;100014.06;4994390;28;20258;-68
2023/12/24 01:01:22;;;;;;;0.60;0.60;;;;;;;9.62;100.00;100013.16;4993425;28;20224;-69
2023/12/24 01:03:48;;;;;;;0.60;0.60;;;;;;;9.58;100.00;100014.84;4998333;28;20263;-67
2023/12/24 01:06:16;;;;;;;0.80;0.50;;;;;;;9.61;100.00;100016.69;4988306;28;20277;-65
2023/12/24 01:08:42;;;;;;;1.17;0.60;;;;;;;9.57;100.00;100020.13;4987660;28;20209;-67
2023/12/24 01:11:09;;;;;;;1.13;0.70;;;;;;;9.61;100.00;100008.75;4989078;28;20257;-65
2023/12/24 01:13:35;;;;;;;1.80;0.80;;;;;;;9.59;100.00;100018.38;4986458;28;20201;-66
2023/12/24 01:16:02;;;;;;;0.90;0.60;;;;;;;9.65;100.00;100027.31;4986268;28;20235;-66
2023/12/24 01:18:28;;;;;;;0.67;0.60;;;;;;;9.64;100.00;100017.59;4986627;28;20222;-67
2023/12/24 01:20:56;;;;;;;1.00;0.70;;;;;;;9.74;100.00;100021.22;4990297;28;20256;-66
2023/12/24 01:23:23;;;;;;;0.50;0.50;;;;;;;9.71;100.00;100035.31;5004400;28;20215;-66
2023/12/24 01:25:50;;;;;;;1.10;0.50;;;;;;;9.72;100.00;100028.25;5002688;28;20204;-66
2023/12/24 01:28:17;;;;;;;0.83;0.60;;;;;;;9.69;100.00;100038.81;4993898;28;20678;-67
2023/12/24 01:30:43;;;;;;;0.50;0.50;;;;;;;9.72;100.00;100031.78;4987404;28;20232;-65
2023/12/24 01:33:10;;;;;;;0.60;0.60;;;;;;;9.77;100.00;100042.41;4985866;28;20243;-66
2023/12/24 01:35:37;;;;;;;1.40;0.70;;;;;;;9.78;100.00;100048.59;4995914;28;20233;-66
2023/12/24 01:38:04;;;;;;;0.50;0.50;;;;;;;9.84;100.00;100044.25;4993710;28;20203;-66
2023/12/24 01:40:30;;;;;;;0.73;0.50;;;;;;;9.82;100.00;100038.06;4996540;28;20586;-67
2023/12/24 01:42:57;;;;;;;0.70;0.70;;;;;;;9.83;100.00;100033.66;4997545;28;21066;-65
2023/12/24 01:45:23;;;;;;;0.60;0.60;;;;;;;9.78;100.00;100046.81;4988296;28;20203;-66
2023/12/24 01:47:50;;;;;;;0.60;0.60;;;;;;;9.85;100.00;100043.38;4992391;28;20208;-67
2023/12/24 01:50:19;;;;;;;1.07;0.70;;;;;;;9.87;100.00;100046.91;4991737;28;20253;-66
2023/12/24 01:52:46;;;;;;;1.37;0.70;;;;;;;9.93;100.00;100051.38;4985550;28;20358;-65
2023/12/24 01:55:13;;;;;;;0.63;0.60;;;;;;;9.90;100.00;100046.06;4984033;28;20724;-69
2023/12/24 01:57:39;;;;;;;0.47;0.47;;;;;;;9.90;100.00;100049.59;5008786;28;20211;-66
2023/12/24 02:00:06;;;;;;;0.83;0.50;;;;;;;9.94;100.00;100046.09;4985717;28;20751;-66
2023/12/24 02:02:33;;;;;;;0.50;0.50;;;;;;;9.98;100.00;100037.31;4987960;28;20256;-66
2023/12/24 02:05:00;;;;;;;1.77;0.60;;;;;;;9.94;100.00;100045.22;4982785;28;20215;-66
2023/12/24 02:07:29;;;;;;;0.60;0.60;;;;;;;9.94;100.00;100047.88;5004626;28;20281;-66
2023/12/24 02:09:58;;;;;;;0.60;0.50;;;;;;;9.87;100.00;100059.25;4985084;28;20306;-66
2023/12/24 02:12:24;;;;;;;0.93;0.50;;;;;;;9.87;100.00;100046.91;4985907;28;20424;-66
2023/12/24 02:14:51;;;;;;;0.90;0.77;;;;;;;9.90;100.00;100032.84;4985665;28;20702;-65
2023/12/24 02:17:17;;;;;;;0.73;0.63;;;;;;;9.88;100.00;100035.47;4995662;28;20219;-66
2023/12/24 02:19:44;;;;;;;0.70;0.50;;;;;;;9.86;100.00;100034.56;4991940;28;20230;-66
2023/12/24 02:22:10;;;;;;;0.63;0.60;;;;;;;9.90;100.00;100038.13;4991449;28;20199;-66
2023/12/24 02:24:37;;;;;;;1.50;0.60;;;;;;;9.91;100.00;100064.59;4992760;28;20209;-65
2023/12/24 02:27:17;;;;;;;1.97;0.60;;;;;;;9.93;100.00;100054.91;4993304;28;20212;-66
2023/12/24 02:29:48;;;;;;;0.87;0.70;;;;;;;9.89;100.00;100050.47;5000975;28;20227;-66
2023/12/24 02:32:15;;;;;;;1.13;0.70;;;;;;;9.89;100.00;100052.22;4997466;28;21054;-66
2023/12/24 02:34:45;;;;;;;0.93;0.60;;;;;;;9.89;100.00;100039.88;4991827;28;20224;-66
2023/12/24 02:37:12;;;;;;;0.80;0.77;;;;;;;9.91;100.00;100046.06;4987249;28;20601;-66
2023/12/24 02:39:41;;;;;;;0.87;0.80;;;;;;;9.89;100.00;100036.34;4991502;28;20314;-66
2023/12/24 02:42:08;;;;;;;2.30;0.70;;;;;;;9.84;100.00;100025.72;4989246;28;20296;-68
2023/12/24 02:44:35;;;;;;;1.57;0.60;;;;;;;9.81;100.00;100024.81;5004858;28;20850;-66
2023/12/24 02:47:02;;;;;;;1.63;0.70;;;;;;;9.75;100.00;99988.63;4987910;28;20227;-66
2023/12/24 02:49:29;;;;;;;1.10;0.63;;;;;;;9.78;100.00;100006.28;4994815;28;20282;-67
2023/12/24 02:51:55;;;;;;;1.00;0.90;;;;;;;9.73;100.00;100008.88;4997248;28;20217;-66
2023/12/24 02:54:22;;;;;;;2.27;0.70;;;;;;;9.76;100.00;100016.84;4985147;28;20205;-66
2023/12/24 02:56:48;;;;;;;0.80;0.80;;;;;;;9.74;100.00;100010.66;4989588;28;20237;-66
2023/12/24 02:59:16;;;;;;;1.00;0.70;;;;;;;9.76;100.00;100015.94;4981975;28;20203;-66
2023/12/24 03:01:42;;;;;;;2.00;0.80;;;;;;;9.69;100.00;100013.25;4986114;28;20258;-65
2023/12/24 03:04:09;;;;;;;1.00;0.80;;;;;;;9.76;100.00;100011.53;4982334;28;20300;-66
2023/12/24 03:06:35;;;;;;;2.67;0.70;;;;;;;9.76;100.00;100019.47;4986858;28;20195;-67
2023/12/24 03:09:02;;;;;;;1.03;0.90;;;;;;;9.77;100.00;100015.06;4991641;28;20208;-66
2023/12/24 03:11:28;;;;;;;1.13;0.90;;;;;;;9.79;100.00;100011.56;4995705;28;20222;-66
2023/12/24 03:13:55;;;;;;;1.83;1.03;;;;;;;9.73;100.00;99995.66;4991408;28;20686;-66
2023/12/24 03:16:22;;;;;;;4.57;1.00;;;;;;;9.71;100.00;99984.19;4990899;28;20710;-67
2023/12/24 03:18:48;;;;;;;2.10;1.23;;;;;;;9.73;100.00;99970.09;5005156;28;20289;-66
2023/12/24 03:21:14;;;;;;;1.30;0.97;;;;;;;9.75;100.00;99967.47;4988174;28;21431;-66
2023/12/24 03:23:41;;;;;;;1.20;1.00;;;;;;;9.72;100.00;99964.78;4991321;28;20317;-66
2023/12/24 03:26:18;;;;;;;1.20;0.90;;;;;;;9.71;100.00;99960.38;4993764;28;20201;-66
2023/12/24 03:28:45;;;;;;;2.70;1.10;;;;;;;9.70;100.00;99951.56;4995093;28;20204;-67
2023/12/24 03:31:12;;;;;;;3.77;1.10;;;;;;;9.73;100.00;99941.00;4996468;28;20232;-67
2023/12/24 03:33:43;;;;;;;1.70;1.00;;;;;;;9.75;100.00;99946.31;4986889;28;20205;-65
2023/12/24 03:36:10;;;;;;;1.60;0.63;;;;;;;9.77;100.00;99922.53;4991225;28;20712;-67
2023/12/24 03:38:36;;;;;;;0.70;0.70;;;;;;;9.77;100.00;99930.47;5005473;28;20203;-67
2023/12/24 03:41:03;;;;;;;2.97;0.80;;;;;;;9.78;100.00;99919.00;4991005;28;20226;-67
2023/12/24 03:43:29;;;;;;;1.90;0.80;;;;;;;9.78;100.00;99925.19;4984544;28;20203;-67
2023/12/24 03:45:57;;;;;;;1.30;0.90;;;;;;;9.81;100.00;99926.97;4985857;28;20204;-66
2023/12/24 03:48:23;;;;;;;1.60;0.80;;;;;;;9.81;100.00;99919.03;4985620;28;20295;-67
2023/12/24 03:50:50;;;;;;;2.30;0.80;;;;;;;9.81;100.00;99924.31;4990842;28;20311;-67
2023/12/24 03:53:16;;;;;;;1.27;0.77;;;;;;;9.82;100.00;99913.75;4985509;28;20275;-67
2023/12/24 03:55:43;;;;;;;2.00;0.73;;;;;;;9.84;100.00;99921.69;4988357;28;20311;-66
2023/12/24 03:58:09;;;;;;;1.60;0.60;;;;;;;9.85;100.00;99923.47;4995637;28;20220;-67
2023/12/24 04:00:35;;;;;;;0.53;0.50;;;;;;;9.81;100.00;99927.84;4989161;28;20224;-67
2023/12/24 04:03:02;;;;;;;0.60;0.60;;;;;;;9.88;100.00;99913.81;4993275;28;20219;-67
2023/12/24 04:05:29;;;;;;;0.70;0.50;;;;;;;9.88;100.00;99903.22;4998471;28;20586;-67
2023/12/24 04:07:55;;;;;;;0.50;0.50;;;;;;;9.86;100.00;99909.38;4991298;28;20293;-67
2023/12/24 04:10:21;;;;;;;0.90;0.60;;;;;;;9.87;100.00;99916.44;4988988;28;20726;-66
2023/12/24 04:12:48;;;;;;;1.07;0.60;;;;;;;9.83;100.00;99920.81;4994011;28;20570;-69
2023/12/24 04:15:15;;;;;;;1.00;0.60;;;;;;;9.81;100.00;99906.69;4993546;28;20563;-65
2023/12/24 04:17:41;;;;;;;1.13;0.50;;;;;;;9.84;100.00;99913.75;4994465;28;20661;-67
2023/12/24 04:20:08;;;;;;;0.40;0.40;;;;;;;9.80;100.00;99904.91;4990063;28;20224;-67
2023/12/24 04:22:34;;;;;;;2.47;0.60;;;;;;;9.82;100.00;99899.66;4992278;28;20679;-66
2023/12/24 04:25:01;;;;;;;0.47;0.47;;;;;;;9.78;100.00;99905.78;4996524;28;20214;-66
2023/12/24 04:27:27;;;;;;;0.83;0.70;;;;;;;9.76;100.00;99900.47;4997620;28;20204;-65
2023/12/24 04:29:54;;;;;;;1.00;0.60;;;;;;;9.79;100.00;99910.19;4990576;28;20749;-66
2023/12/24 04:32:20;;;;;;;1.17;0.50;;;;;;;9.69;100.00;99902.19;4992427;28;20209;-66
2023/12/24 04:34:47;;;;;;;2.17;0.47;;;;;;;9.65;100.00;99895.09;4990809;28;20292;-66
2023/12/24 04:37:13;;;;;;;0.50;0.50;;;;;;;9.64;100.00;99906.56;4993042;28;20224;-66
2023/12/24 04:39:40;;;;;;;0.67;0.60;;;;;;;9.65;100.00;99900.41;4995852;28;20221;-67
2023/12/24 04:42:06;;;;;;;1.27;0.50;;;;;;;9.58;100.00;99901.19;4991415;28;20215;-65
2023/12/24 04:44:36;;;;;;;0.90;0.57;;;;;;;9.59;100.00;99902.06;4996429;28;20629;-66
2023/12/24 04:47:03;;;;;;;0.70;0.40;;;;;;;9.58;100.00;99892.38;4992066;28;20213;-65
2023/12/24 04:49:29;;;;;;;0.70;0.60;;;;;;;9.58;100.00;99885.31;5014495;28;20204;-67
2023/12/24 04:51:56;;;;;;;0.80;0.50;;;;;;;9.57;100.00;99895.88;4996359;28;20211;-66
2023/12/24 04:54:22;;;;;;;0.70;0.47;;;;;;;9.57;100.00;99888.84;4989179;28;20234;-65
2023/12/24 04:56:49;;;;;;;2.20;0.50;;;;;;;9.57;100.00;99899.41;4990524;28;20250;-66
2023/12/24 04:59:15;;;;;;;0.57;0.47;;;;;;;9.54;100.00;99875.59;4991312;28;20246;-66
2023/12/24 05:01:42;;;;;;;0.40;0.40;;;;;;;9.54;100.00;99883.53;4988499;28;20215;-67
2023/12/24 05:04:08;;;;;;;0.80;0.57;;;;;;;9.54;100.00;99887.94;5005906;28;20225;-66
2023/12/24 05:06:35;;;;;;;0.63;0.50;;;;;;;9.54;100.00;99893.22;4992815;28;20218;-66
2023/12/24 05:09:01;;;;;;;0.50;0.50;;;;;;;9.55;100.00;99879.13;4989775;28;20217;-66
2023/12/24 05:11:28;;;;;;;0.50;0.50;;;;;;;9.51;100.00;99878.22;4989325;28;20731;-66
2023/12/24 05:13:55;;;;;;;0.40;0.40;;;;;;;9.42;100.00;99873.72;4990698;28;20698;-66
2023/12/24 05:16:21;;;;;;;0.50;0.50;;;;;;;9.32;100.00;99882.44;4988327;28;20705;-66
2023/12/24 05:18:49;;;;;;;0.50;0.50;;;;;;;9.22;100.00;99877.06;4993102;28;20304;-66
2023/12/24 05:21:15;;;;;;;0.57;0.50;;;;;;;9.18;100.00;99877.88;4993194;28;20236;-66
2023/12/24 05:23:41;;;;;;;0.70;0.50;;;;;;;9.20;100.00;99890.22;4991756;28;20208;-67
2023/12/24 05:26:08;;;;;;;0.80;0.50;;;;;;;9.18;100.00;99894.59;4991131;28;20212;-66
2023/12/24 05:28:34;;;;;;;0.70;0.50;;;;;;;9.07;100.00;99893.59;5000684;28;20212;-65
2023/12/24 05:31:01;;;;;;;0.50;0.50;;;;;;;8.95;100.00;99907.56;4984936;28;20243;-66
2023/12/24 05:33:27;;;;;;;0.60;0.50;;;;;;;8.85;100.00;99902.16;4987973;28;20286;-66
2023/12/24 05:35:55;;;;;;;1.00;0.67;;;;;;;8.75;100.00;99887.94;4991390;28;20327;-65
2023/12/24 05:38:22;;;;;;;0.57;0.57;;;;;;;8.60;100.00;99899.19;4991034;28;20198;-66
2023/12/24 05:40:48;;;;;;;0.80;0.70;;;;;;;8.50;100.00;99892.03;4990916;28;20217;-66
2023/12/24 05:43:15;;;;;;;0.80;0.60;;;;;;;8.36;100.00;99901.47;4992236;28;20206;-66
2023/12/24 05:45:41;;;;;;;1.17;0.60;;;;;;;8.31;100.00;99916.31;4991088;28;20216;-65
2023/12/24 05:48:07;;;;;;;0.50;0.50;;;;;;;8.23;100.00;99913.56;4990816;28;20268;-65
2023/12/24 05:50:36;;;;;;;1.10;0.53;;;;;;;8.18;100.00;99916.16;4986925;28;20282;-66
2023/12/24 05:53:03;;;;;;;1.07;0.60;;;;;;;8.17;100.00;99913.50;4988043;28;20240;-66
2023/12/24 05:55:29;;;;;;;0.63;0.63;;;;;;;8.16;100.00;99906.44;4983358;28;20272;-66
2023/12/24 05:57:55;;;;;;;1.07;0.40;;;;;;;8.12;100.00;99921.34;4988732;28;20235;-66
2023/12/24 06:00:22;;;;;;;0.80;0.60;;;;;;;8.12;100.00;99933.63;5003740;23;20231;-68
2023/12/24 06:02:49;;;;;;;0.60;0.50;;;;;;;8.09;100.00;99926.56;5005141;28;20212;-68
2023/12/24 06:05:17;;;;;;;0.60;0.60;;;;;;;8.08;100.00;99924.78;5018615;28;20205;-67
2023/12/24 06:07:43;;;;;;;0.60;0.60;;;;;;;8.09;100.00;99921.28;5007645;28;20623;-67
2023/12/24 06:10:10;;;;;;;0.63;0.60;;;;;;;8.13;100.00;99919.59;5007150;28;20612;-67
2023/12/24 06:12:36;;;;;;;0.50;0.50;;;;;;;8.11;100.00;99905.50;5005073;28;20710;-66
2023/12/24 06:15:04;;;;;;;0.70;0.50;;;;;;;8.17;100.00;99916.13;5007198;28;20690;-67
2023/12/24 06:17:31;;;;;;;0.40;0.40;;;;;;;8.10;100.00;99917.78;5002607;28;20232;-66
2023/12/24 06:19:57;;;;;;;0.97;0.60;;;;;;;8.09;100.00;99918.66;5005883;28;20271;-67
2023/12/24 06:22:24;;;;;;;1.10;0.50;;;;;;;8.08;100.00;99916.00;5004625;28;20303;-67
2023/12/24 06:24:51;;;;;;;0.50;0.50;;;;;;;8.04;100.00;99917.69;5011696;28;20275;-67
2023/12/24 06:27:17;;;;;;;0.90;0.60;;;;;;;8.06;100.00;99920.34;5002301;28;20200;-67
2023/12/24 06:29:44;;;;;;;1.03;0.60;;;;;;;8.04;100.00;99925.59;5021299;28;20224;-67
2023/12/24 06:32:11;;;;;;;0.80;0.40;;;;;;;8.03;100.00;99929.13;5006672;28;20246;-67
2023/12/24 06:34:38;;;;;;;0.57;0.57;;;;;;;8.04;100.00;99933.53;5001472;28;20297;-67
2023/12/24 06:37:04;;;;;;;0.50;0.50;;;;;;;8.01;100.00;99928.19;5015879;28;20232;-68
2023/12/24 06:39:30;;;;;;;0.70;0.60;;;;;;;8.05;100.00;99935.28;5002628;28;20642;-67
2023/12/24 06:41:57;;;;;;;0.50;0.50;;;;;;;8.06;100.00;99937.06;5003385;28;20324;-68
2023/12/24 06:44:23;;;;;;;1.27;0.57;;;;;;;8.05;100.00;99942.31;5002051;28;20655;-65
2023/12/24 06:46:50;;;;;;;1.20;0.57;;;;;;;8.04;100.00;99937.91;4998994;28;20215;-67
2023/12/24 06:49:16;;;;;;;0.70;0.67;;;;;;;8.03;100.00;99944.03;5004044;28;20206;-67
2023/12/24 06:51:43;;;;;;;0.60;0.60;;;;;;;8.02;100.00;99942.28;5001216;28;20221;-68
2023/12/24 06:54:09;;;;;;;0.50;0.50;;;;;;;8.06;100.00;99938.81;5004866;28;20246;-67
2023/12/24 06:56:35;;;;;;;0.70;0.50;;;;;;;8.06;100.00;99929.16;5005413;28;20229;-67
2023/12/24 06:59:02;;;;;;;0.53;0.50;;;;;;;8.10;100.00;99930.09;5012935;28;20294;-68
2023/12/24 07:01:29;;;;;;;0.60;0.60;;;;;;;8.09;100.00;99915.13;4998033;28;20228;-68
2023/12/24 07:03:55;;;;;;;0.50;0.50;;;;;;;8.13;100.00;99927.50;4998370;28;20211;-68
2023/12/24 07:06:21;;;;;;;1.83;0.83;;;;;;;8.12;100.00;99923.97;4999990;28;20207;-67
2023/12/24 07:08:48;;;;;;;2.40;0.70;;;;;;;8.11;100.00;99921.31;4998169;28;20207;-67
2023/12/24 07:11:14;;;;;;;0.93;0.67;;;;;;;8.10;100.00;99919.53;4996813;28;20224;-67
2023/12/24 07:13:41;;;;;;;0.60;0.60;;;;;;;8.12;100.00;99917.81;5000085;28;20664;-68
2023/12/24 07:16:08;;;;;;;0.60;0.60;;;;;;;8.12;100.00;99925.72;4995882;28;20213;-67
2023/12/24 07:18:34;;;;;;;0.53;0.53;;;;;;;8.11;100.00;99924.84;4999431;28;20594;-66
2023/12/24 07:21:01;;;;;;;1.43;0.60;;;;;;;8.13;100.00;99923.09;5000014;28;20308;-66
2023/12/24 07:23:27;;;;;;;0.70;0.50;;;;;;;8.15;100.00;99934.56;5002058;28;20205;-68
2023/12/24 07:25:53;;;;;;;0.80;0.50;;;;;;;8.16;100.00;99930.19;5003179;28;20205;-67
2023/12/24 07:28:20;;;;;;;0.63;0.40;;;;;;;8.15;100.00;99929.28;5002547;28;20199;-67
2023/12/24 07:30:46;;;;;;;0.40;0.40;;;;;;;8.12;100.00;99926.63;5002662;28;20996;-67
2023/12/24 07:33:13;;;;;;;0.53;0.53;;;;;;;8.16;100.00;99932.81;5005821;28;20211;-67
2023/12/24 07:35:41;;;;;;;0.67;0.50;;;;;;;8.16;100.00;99933.69;5003200;28;20205;-67
2023/12/24 07:38:07;;;;;;;0.43;0.43;;;;;;;8.19;100.00;99938.13;5005536;28;20407;-67
2023/12/24 07:40:34;;;;;;;0.37;0.37;;;;;;;8.21;100.00;99936.41;5009978;28;20260;-67
2023/12/24 07:43:01;;;;;;;0.47;0.47;;;;;;;8.25;100.00;99937.34;5011049;28;20245;-67
2023/12/24 07:45:27;;;;;;;0.50;0.50;;;;;;;8.19;100.00;99940.78;5010020;28;20767;-67
2023/12/24 07:47:54;;;;;;;0.60;0.60;;;;;;;8.24;100.00;99936.47;5009053;28;20201;-67
2023/12/24 07:50:21;;;;;;;0.40;0.40;;;;;;;8.27;100.00;99935.63;5008026;28;20228;-67
2023/12/24 07:52:47;;;;;;;1.63;0.40;;;;;;;8.26;100.00;99928.56;5006014;28;20291;-67
2023/12/24 07:55:14;;;;;;;0.37;0.37;;;;;;;8.25;100.00;99930.31;5007665;28;20237;-68
2023/12/24 07:57:40;;;;;;;0.50;0.47;;;;;;;8.26;100.00;99915.38;5007822;28;20220;-68
2023/12/24 08:00:07;;;;;;;1.77;0.60;;;;;;;8.27;100.00;99920.66;5007729;28;20218;-67
2023/12/24 08:02:34;;;;;;;0.50;0.50;;;;;;;8.29;100.00;99937.41;5001164;28;20323;-67
2023/12/24 08:05:00;;;;;;;0.40;0.40;;;;;;;8.28;100.00;99938.28;5003986;28;20214;-68
2023/12/24 08:07:26;;;;;;;0.40;0.40;;;;;;;8.31;100.00;99933.03;5009135;28;20199;-68
2023/12/24 08:09:54;;;;;;;0.50;0.50;;;;;;;8.32;100.00;99926.00;5008037;28;20294;-69
2023/12/24 08:12:21;;;;;;;0.57;0.40;;;;;;;8.39;100.00;99920.88;5008031;28;20215;-67
2023/12/24 08:14:47;;;;;;;1.00;0.63;;;;;;;8.40;100.00;99933.19;5009598;28;20258;-67
2023/12/24 08:17:14;;;;;;;0.97;0.60;;;;;;;8.36;100.00;99926.13;5007760;28;20254;-67
2023/12/24 08:19:40;;;;;;;0.60;0.40;;;;;;;8.36;100.00;99931.38;5008537;28;20200;-67
2023/12/24 08:22:07;;;;;;;1.20;0.40;;;;;;;8.32;100.00;99918.97;5009680;28;20229;-68
2023/12/24 08:24:34;;;;;;;0.60;0.40;;;;;;;8.41;100.00;99926.22;5009853;28;20219;-68
2023/12/24 08:27:00;;;;;;;0.40;0.40;;;;;;;8.47;100.00;99923.66;5009774;28;20663;-67
2023/12/24 08:29:27;;;;;;;0.40;0.40;;;;;;;8.49;100.00;99919.28;5008544;28;20204;-67
2023/12/24 08:31:55;;;;;;;0.40;0.40;;;;;;;8.45;100.00;99909.56;5006276;28;20221;-68
2023/12/24 08:34:21;;;;;;;2.23;0.40;;;;;;;8.47;100.00;99908.72;5005624;28;20250;-67
2023/12/24 08:36:48;;;;;;;0.40;0.40;;;;;;;8.48;100.00;99904.31;5008735;28;20261;-67
2023/12/24 08:39:14;;;;;;;1.33;0.40;;;;;;;8.57;100.00;99907.06;5003839;28;20264;-68
2023/12/24 08:41:41;;;;;;;0.40;0.40;;;;;;;8.58;100.00;99906.22;5009363;28;20237;-67
2023/12/24 08:44:08;;;;;;;0.83;0.40;;;;;;;8.64;100.00;99911.56;5007331;28;20209;-66
2023/12/24 08:46:34;;;;;;;0.40;0.40;;;;;;;8.65;100.00;99920.38;5008750;28;20296;-67
2023/12/24 08:49:01;;;;;;;0.40;0.40;;;;;;;8.63;100.00;99915.06;5024508;28;20204;-67
2023/12/24 08:51:27;;;;;;;0.40;0.40;;;;;;;8.65;100.00;99910.69;5008862;28;20235;-68
2023/12/24 08:53:54;;;;;;;0.40;0.40;;;;;;;8.67;100.00;99922.16;5008882;28;20237;-68
2023/12/24 08:56:20;;;;;;;0.30;0.30;;;;;;;8.68;100.00;99923.94;5008431;28;20225;-67
2023/12/24 08:58:47;;;;;;;0.40;0.40;;;;;;;8.70;100.00;99902.84;5008657;28;20218;-68
2023/12/24 09:01:13;;;;;;;0.40;0.40;;;;;;;8.76;100.00;99916.09;5004597;28;20235;-68
2023/12/24 09:03:40;;;;;;;0.30;0.30;;;;;;;8.75;100.00;99916.97;5008037;28;20196;-67
2023/12/24 09:06:06;;;;;;;0.50;0.40;;;;;;;8.81;100.00;99911.81;5009638;28;20275;-65
2023/12/24 09:08:33;;;;;;;0.40;0.40;;;;;;;8.78;100.00;99911.72;5009611;28;20652;-66
2023/12/24 09:10:59;;;;;;;0.30;0.30;;;;;;;8.86;100.00;99906.56;5008024;28;20255;-67
2023/12/24 09:13:25;;;;;;;0.30;0.30;;;;;;;8.84;100.00;99906.56;5007388;28;20284;-67
2023/12/24 09:15:52;;;;;;;0.30;0.30;;;;;;;8.85;100.00;99912.72;5008611;28;20211;-69
2023/12/24 09:18:18;;;;;;;1.03;0.40;;;;;;;8.89;100.00;99917.16;5012131;28;20217;-67
2023/12/24 09:20:45;;;;;;;0.43;0.40;;;;;;;8.89;100.00;99906.63;5011686;28;20229;-68
2023/12/24 09:23:12;;;;;;;2.83;0.30;;;;;;;8.90;100.00;99905.75;5021220;28;20908;-67
2023/12/24 09:25:38;;;;;;;0.30;0.30;;;;;;;8.89;100.00;99919.81;5009651;28;20260;-69
2023/12/24 09:28:06;;;;;;;0.30;0.30;;;;;;;8.93;100.00;99927.78;5008167;28;20194;-67
2023/12/24 09:30:32;;;;;;;0.20;0.20;;;;;;;8.97;100.00;99921.69;5008916;28;20718;-67
2023/12/24 09:32:59;;;;;;;0.30;0.30;;;;;;;8.95;100.00;99917.25;5009546;28;20220;-68
2023/12/24 09:35:27;;;;;;;0.40;0.40;;;;;;;8.95;100.00;99923.41;5007221;28;20254;-67
2023/12/24 09:37:53;;;;;;;0.30;0.30;;;;;;;8.96;100.00;99913.72;5004366;28;20319;-67
2023/12/24 09:40:20;;;;;;;0.33;0.33;;;;;;;8.97;100.00;99913.75;5008265;28;20233;-67
2023/12/24 09:42:46;;;;;;;0.37;0.37;;;;;;;8.93;100.00;99911.06;5008339;28;20205;-68
2023/12/24 09:45:13;;;;;;;0.40;0.40;;;;;;;8.96;100.00;99916.38;5003970;28;20649;-67
2023/12/24 09:47:40;;;;;;;0.30;0.30;;;;;;;8.94;100.00;99904.91;5002080;28;20285;-68
2023/12/24 09:50:07;;;;;;;0.40;0.40;;;;;;;8.95;100.00;99917.25;5001992;28;20237;-68
2023/12/24 09:52:34;;;;;;;1.90;0.70;;;;;;;9.02;100.00;99900.59;4998318;28;20204;-68
2023/12/24 09:55:03;;;;;;;0.50;0.50;;;;;;;9.06;100.00;99905.03;5001574;28;20210;-67
2023/12/24 09:57:29;;;;;;;0.43;0.43;;;;;;;9.11;100.00;99904.22;5002097;28;20231;-68
2023/12/24 09:59:56;;;;;;;0.77;0.30;;;;;;;9.15;100.00;99914.81;5001878;28;20210;-66
2023/12/24 10:02:22;;;;;;;0.70;0.40;;;;;;;9.18;100.00;99909.56;5002991;28;20202;-67
2023/12/24 10:04:49;;;;;;;0.30;0.30;;;;;;;9.17;100.00;99903.41;5004546;28;20227;-69
2023/12/24 10:07:15;;;;;;;0.50;0.40;;;;;;;9.20;100.00;99892.88;5006598;28;20288;-68
2023/12/24 10:09:43;;;;;;;0.73;0.47;;;;;;;9.26;100.00;99892.97;4999404;28;20287;-68
2023/12/24 10:12:10;;;;;;;0.57;0.40;;;;;;;9.34;100.00;99900.97;5002980;28;20231;-66
2023/12/24 10:14:38;;;;;;;0.40;0.40;;;;;;;9.33;100.00;99893.91;5000307;28;20204;-67
2023/12/24 10:17:06;;;;;;;0.30;0.30;;;;;;;9.41;100.00;99901.03;5000683;28;20697;-70
2023/12/24 10:19:32;;;;;;;0.30;0.30;;;;;;;9.38;100.00;99894.84;5004610;28;20789;-67
2023/12/24 10:22:02;;;;;;;0.47;0.40;;;;;;;9.42;100.00;99889.59;4998214;28;20235;-67
2023/12/24 10:24:31;;;;;;;0.77;0.50;;;;;;;9.40;100.00;99879.88;5001144;28;20287;-68
2023/12/24 10:27:05;;;;;;;0.30;0.30;;;;;;;9.52;100.00;99884.38;4994092;28;20686;-68
2023/12/24 10:29:37;;;;;;;0.60;0.43;;;;;;;9.58;100.00;99889.72;4998816;28;20203;-67
2023/12/24 10:32:04;;;;;;;0.43;0.40;;;;;;;9.68;100.00;99878.38;4991860;28;20223;-68
2023/12/24 10:34:33;;;;;;;1.17;0.40;;;;;;;9.77;100.00;99864.34;5002308;28;20239;-67
2023/12/24 10:37:26;;;;;;;0.80;0.40;;;;;;;9.83;100.00;99875.84;4997363;28;20218;-67
2023/12/24 10:39:54;;;;;;;0.30;0.30;;;;;;;9.74;100.00;99854.63;4996177;28;20240;-67
2023/12/24 10:42:20;;;;;;;0.57;0.50;;;;;;;9.80;100.00;99854.69;4998023;28;20205;-67
2023/12/24 10:44:47;;;;;;;0.40;0.40;;;;;;;9.80;100.00;99859.97;4999736;28;20198;-67
2023/12/24 10:47:13;;;;;;;0.37;0.37;;;;;;;9.84;100.00;99856.47;5004737;28;20291;-67
2023/12/24 10:49:39;;;;;;;0.37;0.37;;;;;;;9.84;100.00;99853.81;5006578;28;20216;-67
2023/12/24 10:52:06;;;;;;;0.97;0.20;;;;;;;9.82;100.00;99839.69;5006227;28;20234;-68
2023/12/24 10:54:34;;;;;;;0.53;0.40;;;;;;;9.85;100.00;99841.50;5004008;28;20213;-67
2023/12/24 10:57:15;;;;;;;0.57;0.40;;;;;;;9.92;100.00;99838.88;5006284;28;20197;-68
2023/12/24 11:00:14;;;;;;;0.40;0.30;;;;;;;9.99;100.00;99845.09;5003151;28;20232;-68
2023/12/24 11:02:46;;;;;;;0.30;0.30;;;;;;;10.04;100.00;99844.28;5001790;28;20210;-67
2023/12/24 11:05:46;;;;;;;0.80;0.40;;;;;;;10.20;100.00;99831.13;5000650;28;20258;-68
2023/12/24 11:08:19;;;;;;;0.40;0.30;;;;;;;10.22;100.00;99829.44;5003849;28;20200;-68
2023/12/24 11:10:53;;;;;;;0.30;0.30;;;;;;;10.39;100.00;99829.50;5010156;28;20224;-67
2023/12/24 11:13:36;;;;;;;0.33;0.33;;;;;;;10.44;100.00;99830.44;5009254;28;20219;-66
2023/12/24 11:16:05;;;;;;;0.30;0.30;;;;;;;10.53;100.00;99799.59;5009529;28;20214;-68
2023/12/24 11:18:45;;;;;;;0.40;0.40;;;;;;;10.60;100.00;99796.06;5009914;28;20767;-68
2023/12/24 11:21:14;;;;;;;0.30;0.30;;;;;;;10.73;100.00;99782.88;5006908;28;20406;-68
2023/12/24 11:23:41;;;;;;;0.30;0.30;;;;;;;10.84;100.00;99774.09;5010816;28;20200;-69
2023/12/24 11:26:27;;;;;;;0.30;0.30;;;;;;;10.94;100.00;99778.53;5008246;28;20215;-67
2023/12/24 11:28:54;;;;;;;0.30;0.30;;;;;;;11.01;100.00;99782.06;5009954;28;20240;-69
2023/12/24 11:31:27;;;;;;;1.80;0.50;;;;;;;11.01;100.00;99778.53;5008918;28;20818;-69